sensor_id;sensor_type;location;lat;lon;timestamp;P1;durP1;ratioP1;P2;durP2;ratioP2
58250;SDS011;51449;51.676;5.812;2023-03-11T00:00:27;8.97;;;2.70;;
58250;SDS011;51449;51.676;5.812;2023-03-11T00:02:52;13.77;;;3.63;;
58250;SDS011;51449;51.676;5.812;2023-03-11T00:05:23;15.80;;;3.20;;
58250;SDS011;51449;51.676;5.812;2023-03-11T00:07:49;10.20;;;3.17;;
58250;SDS011;51449;51.676;5.812;2023-03-11T00:10:12;10.93;;;2.73;;
58250;SDS011;51449;51.676;5.812;2023-03-11T00:12:38;7.57;;;2.70;;
58250;SDS011;51449;51.676;5.812;2023-03-11T00:15:00;8.10;;;2.07;;
58250;SDS011;51449;51.676;5.812;2023-03-11T00:17:21;8.07;;;2.23;;
58250;SDS011;51449;51.676;5.812;2023-03-11T00:19:43;8.83;;;2.40;;
58250;SDS011;51449;51.676;5.812;2023-03-11T00:22:05;5.63;;;2.30;;
58250;SDS011;51449;51.676;5.812;2023-03-11T00:24:26;5.60;;;2.40;;
58250;SDS011;51449;51.676;5.812;2023-03-11T00:26:48;9.07;;;2.10;;
58250;SDS011;51449;51.676;5.812;2023-03-11T00:29:09;6.83;;;1.87;;
58250;SDS011;51449;51.676;5.812;2023-03-11T00:31:31;7.67;;;2.20;;
58250;SDS011;51449;51.676;5.812;2023-03-11T00:33:54;5.17;;;1.87;;
58250;SDS011;51449;51.676;5.812;2023-03-11T00:36:27;6.38;;;2.10;;
58250;SDS011;51449;51.676;5.812;2023-03-11T00:41:13;8.07;;;1.50;;
58250;SDS011;51449;51.676;5.812;2023-03-11T00:43:35;9.53;;;2.43;;
58250;SDS011;51449;51.676;5.812;2023-03-11T00:45:57;3.77;;;1.80;;
58250;SDS011;51449;51.676;5.812;2023-03-11T00:48:19;5.07;;;1.40;;
58250;SDS011;51449;51.676;5.812;2023-03-11T00:50:41;9.50;;;2.33;;
58250;SDS011;51449;51.676;5.812;2023-03-11T00:53:03;4.93;;;1.60;;
58250;SDS011;51449;51.676;5.812;2023-03-11T00:55:28;4.03;;;1.25;;
58250;SDS011;51449;51.676;5.812;2023-03-11T00:57:55;4.07;;;1.17;;
58250;SDS011;51449;51.676;5.812;2023-03-11T01:00:31;6.17;;;1.43;;
58250;SDS011;51449;51.676;5.812;2023-03-11T01:02:56;5.72;;;1.23;;
58250;SDS011;51449;51.676;5.812;2023-03-11T01:05:19;3.77;;;1.40;;
58250;SDS011;51449;51.676;5.812;2023-03-11T01:07:43;4.57;;;1.70;;
58250;SDS011;51449;51.676;5.812;2023-03-11T01:10:06;7.43;;;1.30;;
58250;SDS011;51449;51.676;5.812;2023-03-11T01:12:29;7.38;;;1.58;;
58250;SDS011;51449;51.676;5.812;2023-03-11T01:14:51;8.13;;;1.40;;
58250;SDS011;51449;51.676;5.812;2023-03-11T01:17:13;6.50;;;1.23;;
58250;SDS011;51449;51.676;5.812;2023-03-11T01:19:35;4.50;;;1.27;;
58250;SDS011;51449;51.676;5.812;2023-03-11T01:21:57;7.90;;;1.60;;
58250;SDS011;51449;51.676;5.812;2023-03-11T01:24:19;5.27;;;1.70;;
58250;SDS011;51449;51.676;5.812;2023-03-11T01:26:40;4.67;;;1.43;;
58250;SDS011;51449;51.676;5.812;2023-03-11T01:29:02;4.80;;;1.43;;
58250;SDS011;51449;51.676;5.812;2023-03-11T01:31:24;5.33;;;1.83;;
58250;SDS011;51449;51.676;5.812;2023-03-11T01:33:46;4.83;;;1.37;;
58250;SDS011;51449;51.676;5.812;2023-03-11T01:36:07;8.57;;;1.63;;
58250;SDS011;51449;51.676;5.812;2023-03-11T01:38:29;6.27;;;1.30;;
58250;SDS011;51449;51.676;5.812;2023-03-11T01:40:51;4.80;;;1.60;;
58250;SDS011;51449;51.676;5.812;2023-03-11T01:48:59;4.10;;;1.30;;
58250;SDS011;51449;51.676;5.812;2023-03-11T01:51:39;4.20;;;1.70;;
58250;SDS011;51449;51.676;5.812;2023-03-11T01:54:09;4.93;;;1.30;;
58250;SDS011;51449;51.676;5.812;2023-03-11T01:56:35;3.47;;;1.37;;
58250;SDS011;51449;51.676;5.812;2023-03-11T01:58:59;4.65;;;1.13;;
58250;SDS011;51449;51.676;5.812;2023-03-11T02:01:21;5.23;;;1.17;;
58250;SDS011;51449;51.676;5.812;2023-03-11T02:03:45;4.10;;;1.25;;
58250;SDS011;51449;51.676;5.812;2023-03-11T02:06:10;4.10;;;0.90;;
58250;SDS011;51449;51.676;5.812;2023-03-11T02:08:36;4.20;;;1.00;;
58250;SDS011;51449;51.676;5.812;2023-03-11T02:11:00;4.55;;;1.08;;
58250;SDS011;51449;51.676;5.812;2023-03-11T02:13:25;3.27;;;0.80;;
58250;SDS011;51449;51.676;5.812;2023-03-11T02:15:47;6.17;;;1.40;;
58250;SDS011;51449;51.676;5.812;2023-03-11T02:18:11;6.00;;;1.27;;
58250;SDS011;51449;51.676;5.812;2023-03-11T02:25:37;4.73;;;1.27;;
58250;SDS011;51449;51.676;5.812;2023-03-11T02:28:09;4.60;;;1.20;;
58250;SDS011;51449;51.676;5.812;2023-03-11T02:30:36;5.53;;;1.20;;
58250;SDS011;51449;51.676;5.812;2023-03-11T02:33:03;8.97;;;2.43;;
58250;SDS011;51449;51.676;5.812;2023-03-11T02:35:26;7.50;;;1.97;;
58250;SDS011;51449;51.676;5.812;2023-03-11T02:37:50;7.43;;;1.73;;
58250;SDS011;51449;51.676;5.812;2023-03-11T02:42:43;6.73;;;1.77;;
58250;SDS011;51449;51.676;5.812;2023-03-11T02:45:07;5.93;;;1.90;;
58250;SDS011;51449;51.676;5.812;2023-03-11T02:47:34;6.03;;;1.57;;
58250;SDS011;51449;51.676;5.812;2023-03-11T02:50:03;4.33;;;1.60;;
58250;SDS011;51449;51.676;5.812;2023-03-11T02:52:27;4.93;;;1.30;;
58250;SDS011;51449;51.676;5.812;2023-03-11T02:54:49;5.93;;;1.40;;
58250;SDS011;51449;51.676;5.812;2023-03-11T02:57:11;4.20;;;1.63;;
58250;SDS011;51449;51.676;5.812;2023-03-11T02:59:34;6.57;;;1.63;;
58250;SDS011;51449;51.676;5.812;2023-03-11T03:01:56;6.80;;;1.40;;
58250;SDS011;51449;51.676;5.812;2023-03-11T03:04:17;11.03;;;2.23;;
58250;SDS011;51449;51.676;5.812;2023-03-11T03:06:39;8.07;;;2.13;;
58250;SDS011;51449;51.676;5.812;2023-03-11T03:09:01;9.13;;;2.00;;
58250;SDS011;51449;51.676;5.812;2023-03-11T03:11:24;7.97;;;1.90;;
58250;SDS011;51449;51.676;5.812;2023-03-11T03:13:46;9.43;;;1.80;;
58250;SDS011;51449;51.676;5.812;2023-03-11T03:16:09;7.17;;;1.80;;
58250;SDS011;51449;51.676;5.812;2023-03-11T03:18:30;5.90;;;1.97;;
58250;SDS011;51449;51.676;5.812;2023-03-11T03:20:53;7.53;;;2.03;;
58250;SDS011;51449;51.676;5.812;2023-03-11T03:23:15;7.90;;;1.50;;
58250;SDS011;51449;51.676;5.812;2023-03-11T03:25:40;6.73;;;2.03;;
58250;SDS011;51449;51.676;5.812;2023-03-11T03:28:04;4.63;;;1.80;;
58250;SDS011;51449;51.676;5.812;2023-03-11T03:30:29;6.93;;;1.50;;
58250;SDS011;51449;51.676;5.812;2023-03-11T03:32:51;4.77;;;1.73;;
58250;SDS011;51449;51.676;5.812;2023-03-11T03:35:14;6.63;;;1.40;;
58250;SDS011;51449;51.676;5.812;2023-03-11T03:37:48;5.10;;;1.50;;
58250;SDS011;51449;51.676;5.812;2023-03-11T03:40:12;6.53;;;1.47;;
58250;SDS011;51449;51.676;5.812;2023-03-11T03:42:34;5.23;;;1.87;;
58250;SDS011;51449;51.676;5.812;2023-03-11T03:44:58;6.55;;;1.40;;
58250;SDS011;51449;51.676;5.812;2023-03-11T03:47:20;6.00;;;1.27;;
58250;SDS011;51449;51.676;5.812;2023-03-11T03:49:42;6.43;;;1.37;;
58250;SDS011;51449;51.676;5.812;2023-03-11T03:52:04;4.40;;;1.73;;
58250;SDS011;51449;51.676;5.812;2023-03-11T03:54:27;5.97;;;1.90;;
58250;SDS011;51449;51.676;5.812;2023-03-11T03:56:49;8.17;;;1.23;;
58250;SDS011;51449;51.676;5.812;2023-03-11T03:59:10;5.43;;;1.57;;
58250;SDS011;51449;51.676;5.812;2023-03-11T04:01:39;6.20;;;1.87;;
58250;SDS011;51449;51.676;5.812;2023-03-11T04:04:01;7.37;;;1.80;;
58250;SDS011;51449;51.676;5.812;2023-03-11T04:06:24;8.23;;;2.17;;
58250;SDS011;51449;51.676;5.812;2023-03-11T04:08:53;4.33;;;1.90;;
58250;SDS011;51449;51.676;5.812;2023-03-11T04:11:20;6.50;;;2.10;;
58250;SDS011;51449;51.676;5.812;2023-03-11T04:13:42;8.53;;;2.80;;
58250;SDS011;51449;51.676;5.812;2023-03-11T04:16:06;6.18;;;1.70;;
58250;SDS011;51449;51.676;5.812;2023-03-11T04:18:28;5.40;;;1.43;;
58250;SDS011;51449;51.676;5.812;2023-03-11T04:20:50;6.97;;;1.60;;
58250;SDS011;51449;51.676;5.812;2023-03-11T04:23:12;4.50;;;1.50;;
58250;SDS011;51449;51.676;5.812;2023-03-11T04:25:33;4.40;;;1.30;;
58250;SDS011;51449;51.676;5.812;2023-03-11T04:27:55;8.40;;;1.50;;
58250;SDS011;51449;51.676;5.812;2023-03-11T04:30:17;3.50;;;1.20;;
58250;SDS011;51449;51.676;5.812;2023-03-11T04:32:41;5.40;;;1.60;;
58250;SDS011;51449;51.676;5.812;2023-03-11T04:35:04;3.08;;;1.42;;
58250;SDS011;51449;51.676;5.812;2023-03-11T04:37:27;4.77;;;1.37;;
58250;SDS011;51449;51.676;5.812;2023-03-11T04:39:50;3.03;;;1.67;;
58250;SDS011;51449;51.676;5.812;2023-03-11T04:42:14;5.05;;;1.60;;
58250;SDS011;51449;51.676;5.812;2023-03-11T04:44:37;5.87;;;1.63;;
58250;SDS011;51449;51.676;5.812;2023-03-11T04:46:59;5.17;;;1.93;;
58250;SDS011;51449;51.676;5.812;2023-03-11T04:49:21;1.70;;;1.10;;
58250;SDS011;51449;51.676;5.812;2023-03-11T04:51:45;6.60;;;1.80;;
58250;SDS011;51449;51.676;5.812;2023-03-11T04:56:31;3.57;;;1.20;;
58250;SDS011;51449;51.676;5.812;2023-03-11T04:58:54;9.33;;;1.50;;
58250;SDS011;51449;51.676;5.812;2023-03-11T05:01:18;6.00;;;1.30;;
58250;SDS011;51449;51.676;5.812;2023-03-11T05:03:40;5.37;;;1.47;;
58250;SDS011;51449;51.676;5.812;2023-03-11T05:06:03;4.57;;;1.38;;
58250;SDS011;51449;51.676;5.812;2023-03-11T05:08:26;7.10;;;1.50;;
58250;SDS011;51449;51.676;5.812;2023-03-11T05:10:48;4.77;;;1.30;;
58250;SDS011;51449;51.676;5.812;2023-03-11T05:13:12;4.10;;;1.35;;
58250;SDS011;51449;51.676;5.812;2023-03-11T05:15:34;4.30;;;1.77;;
58250;SDS011;51449;51.676;5.812;2023-03-11T05:17:57;4.23;;;1.30;;
58250;SDS011;51449;51.676;5.812;2023-03-11T05:20:19;7.17;;;1.50;;
58250;SDS011;51449;51.676;5.812;2023-03-11T05:22:40;3.93;;;1.37;;
58250;SDS011;51449;51.676;5.812;2023-03-11T05:25:03;4.27;;;1.60;;
58250;SDS011;51449;51.676;5.812;2023-03-11T05:27:26;5.15;;;1.48;;
58250;SDS011;51449;51.676;5.812;2023-03-11T05:29:50;6.30;;;1.47;;
58250;SDS011;51449;51.676;5.812;2023-03-11T05:32:12;8.90;;;1.87;;
58250;SDS011;51449;51.676;5.812;2023-03-11T05:34:36;5.43;;;1.90;;
58250;SDS011;51449;51.676;5.812;2023-03-11T05:36:58;6.60;;;1.67;;
58250;SDS011;51449;51.676;5.812;2023-03-11T05:39:24;5.83;;;1.40;;
58250;SDS011;51449;51.676;5.812;2023-03-11T05:41:45;5.47;;;1.30;;
58250;SDS011;51449;51.676;5.812;2023-03-11T05:44:08;7.23;;;1.53;;
58250;SDS011;51449;51.676;5.812;2023-03-11T05:46:30;8.03;;;1.87;;
58250;SDS011;51449;51.676;5.812;2023-03-11T05:48:53;5.43;;;1.30;;
58250;SDS011;51449;51.676;5.812;2023-03-11T05:51:15;7.53;;;1.87;;
58250;SDS011;51449;51.676;5.812;2023-03-11T05:53:43;5.50;;;2.15;;
58250;SDS011;51449;51.676;5.812;2023-03-11T05:56:13;3.53;;;1.50;;
58250;SDS011;51449;51.676;5.812;2023-03-11T05:58:36;5.20;;;1.85;;
58250;SDS011;51449;51.676;5.812;2023-03-11T06:00:58;7.00;;;1.67;;
58250;SDS011;51449;51.676;5.812;2023-03-11T06:03:22;5.50;;;1.38;;
58250;SDS011;51449;51.676;5.812;2023-03-11T06:05:47;5.40;;;1.50;;
58250;SDS011;51449;51.676;5.812;2023-03-11T06:08:11;6.50;;;1.70;;
58250;SDS011;51449;51.676;5.812;2023-03-11T06:10:33;7.77;;;1.80;;
58250;SDS011;51449;51.676;5.812;2023-03-11T06:12:55;3.40;;;1.43;;
58250;SDS011;51449;51.676;5.812;2023-03-11T06:15:27;3.60;;;1.50;;
58250;SDS011;51449;51.676;5.812;2023-03-11T06:17:50;3.70;;;1.23;;
58250;SDS011;51449;51.676;5.812;2023-03-11T06:20:11;1.63;;;1.13;;
58250;SDS011;51449;51.676;5.812;2023-03-11T06:22:34;5.73;;;1.60;;
58250;SDS011;51449;51.676;5.812;2023-03-11T06:24:57;8.10;;;1.70;;
58250;SDS011;51449;51.676;5.812;2023-03-11T06:27:19;6.30;;;1.40;;
58250;SDS011;51449;51.676;5.812;2023-03-11T06:29:41;6.10;;;1.60;;
58250;SDS011;51449;51.676;5.812;2023-03-11T06:32:03;2.07;;;1.30;;
58250;SDS011;51449;51.676;5.812;2023-03-11T06:34:26;4.80;;;1.77;;
58250;SDS011;51449;51.676;5.812;2023-03-11T06:36:48;3.90;;;1.50;;
58250;SDS011;51449;51.676;5.812;2023-03-11T06:39:13;4.30;;;1.60;;
58250;SDS011;51449;51.676;5.812;2023-03-11T06:41:37;6.73;;;1.80;;
58250;SDS011;51449;51.676;5.812;2023-03-11T06:44:00;3.40;;;1.58;;
58250;SDS011;51449;51.676;5.812;2023-03-11T06:46:23;3.73;;;1.60;;
58250;SDS011;51449;51.676;5.812;2023-03-11T06:48:46;4.90;;;1.30;;
58250;SDS011;51449;51.676;5.812;2023-03-11T06:51:09;5.03;;;1.40;;
58250;SDS011;51449;51.676;5.812;2023-03-11T06:53:31;6.30;;;1.43;;
58250;SDS011;51449;51.676;5.812;2023-03-11T06:55:58;5.17;;;1.80;;
58250;SDS011;51449;51.676;5.812;2023-03-11T06:58:26;6.37;;;1.37;;
58250;SDS011;51449;51.676;5.812;2023-03-11T07:00:48;6.03;;;1.90;;
58250;SDS011;51449;51.676;5.812;2023-03-11T07:03:10;5.97;;;2.10;;
58250;SDS011;51449;51.676;5.812;2023-03-11T07:05:31;3.93;;;1.27;;
58250;SDS011;51449;51.676;5.812;2023-03-11T07:07:58;4.70;;;1.63;;
58250;SDS011;51449;51.676;5.812;2023-03-11T07:10:20;5.53;;;1.23;;
58250;SDS011;51449;51.676;5.812;2023-03-11T07:12:42;5.23;;;1.67;;
58250;SDS011;51449;51.676;5.812;2023-03-11T07:15:04;4.83;;;2.13;;
58250;SDS011;51449;51.676;5.812;2023-03-11T07:17:28;6.13;;;2.03;;
58250;SDS011;51449;51.676;5.812;2023-03-11T07:19:50;6.37;;;1.87;;
58250;SDS011;51449;51.676;5.812;2023-03-11T07:22:12;7.77;;;2.13;;
58250;SDS011;51449;51.676;5.812;2023-03-11T07:24:34;10.43;;;2.00;;
58250;SDS011;51449;51.676;5.812;2023-03-11T07:26:56;5.47;;;1.90;;
58250;SDS011;51449;51.676;5.812;2023-03-11T07:29:18;5.37;;;1.47;;
58250;SDS011;51449;51.676;5.812;2023-03-11T07:31:40;9.33;;;1.90;;
58250;SDS011;51449;51.676;5.812;2023-03-11T07:34:03;4.83;;;2.40;;
58250;SDS011;51449;51.676;5.812;2023-03-11T07:36:31;4.37;;;1.70;;
58250;SDS011;51449;51.676;5.812;2023-03-11T07:38:57;8.20;;;2.20;;
58250;SDS011;51449;51.676;5.812;2023-03-11T07:41:25;6.37;;;1.90;;
58250;SDS011;51449;51.676;5.812;2023-03-11T07:43:47;2.63;;;1.60;;
58250;SDS011;51449;51.676;5.812;2023-03-11T07:46:13;6.90;;;2.33;;
58250;SDS011;51449;51.676;5.812;2023-03-11T07:48:38;4.43;;;1.60;;
58250;SDS011;51449;51.676;5.812;2023-03-11T07:51:05;6.57;;;1.50;;
58250;SDS011;51449;51.676;5.812;2023-03-11T07:53:31;4.70;;;1.57;;
58250;SDS011;51449;51.676;5.812;2023-03-11T07:55:55;4.73;;;2.00;;
58250;SDS011;51449;51.676;5.812;2023-03-11T07:58:18;3.72;;;1.40;;
58250;SDS011;51449;51.676;5.812;2023-03-11T08:00:40;7.30;;;1.40;;
58250;SDS011;51449;51.676;5.812;2023-03-11T08:03:01;8.70;;;2.13;;
58250;SDS011;51449;51.676;5.812;2023-03-11T08:05:23;4.30;;;1.77;;
58250;SDS011;51449;51.676;5.812;2023-03-11T08:07:45;6.90;;;2.33;;
58250;SDS011;51449;51.676;5.812;2023-03-11T08:10:07;5.83;;;1.63;;
58250;SDS011;51449;51.676;5.812;2023-03-11T08:12:30;2.93;;;1.63;;
58250;SDS011;51449;51.676;5.812;2023-03-11T08:14:51;4.27;;;1.70;;
58250;SDS011;51449;51.676;5.812;2023-03-11T08:17:13;4.17;;;1.40;;
58250;SDS011;51449;51.676;5.812;2023-03-11T08:19:35;2.13;;;1.30;;
58250;SDS011;51449;51.676;5.812;2023-03-11T08:21:56;4.13;;;1.87;;
58250;SDS011;51449;51.676;5.812;2023-03-11T08:24:21;4.10;;;1.77;;
58250;SDS011;51449;51.676;5.812;2023-03-11T08:26:43;2.30;;;1.30;;
58250;SDS011;51449;51.676;5.812;2023-03-11T08:29:05;3.67;;;1.50;;
58250;SDS011;51449;51.676;5.812;2023-03-11T08:31:27;7.07;;;1.73;;
58250;SDS011;51449;51.676;5.812;2023-03-11T08:33:54;5.10;;;1.57;;
58250;SDS011;51449;51.676;5.812;2023-03-11T08:36:21;3.90;;;1.60;;
58250;SDS011;51449;51.676;5.812;2023-03-11T08:38:43;3.57;;;1.40;;
58250;SDS011;51449;51.676;5.812;2023-03-11T08:41:05;4.87;;;1.60;;
58250;SDS011;51449;51.676;5.812;2023-03-11T08:43:27;4.20;;;1.30;;
58250;SDS011;51449;51.676;5.812;2023-03-11T08:45:49;6.67;;;1.63;;
58250;SDS011;51449;51.676;5.812;2023-03-11T08:48:11;4.73;;;1.70;;
58250;SDS011;51449;51.676;5.812;2023-03-11T08:50:33;4.30;;;1.40;;
58250;SDS011;51449;51.676;5.812;2023-03-11T08:53:07;2.90;;;1.30;;
58250;SDS011;51449;51.676;5.812;2023-03-11T08:55:29;3.80;;;1.90;;
58250;SDS011;51449;51.676;5.812;2023-03-11T08:57:51;2.63;;;1.27;;
58250;SDS011;51449;51.676;5.812;2023-03-11T09:00:13;7.03;;;2.03;;
58250;SDS011;51449;51.676;5.812;2023-03-11T09:02:35;4.60;;;1.50;;
58250;SDS011;51449;51.676;5.812;2023-03-11T09:04:57;2.67;;;1.30;;
58250;SDS011;51449;51.676;5.812;2023-03-11T09:07:18;5.43;;;1.60;;
58250;SDS011;51449;51.676;5.812;2023-03-11T09:09:40;3.00;;;1.10;;
58250;SDS011;51449;51.676;5.812;2023-03-11T09:12:02;3.97;;;1.40;;
58250;SDS011;51449;51.676;5.812;2023-03-11T09:14:23;4.43;;;1.40;;
58250;SDS011;51449;51.676;5.812;2023-03-11T09:16:45;0.90;;;0.87;;
58250;SDS011;51449;51.676;5.812;2023-03-11T09:19:07;5.47;;;1.43;;
58250;SDS011;51449;51.676;5.812;2023-03-11T09:21:29;3.73;;;1.00;;
58250;SDS011;51449;51.676;5.812;2023-03-11T09:23:50;4.83;;;1.73;;
58250;SDS011;51449;51.676;5.812;2023-03-11T09:26:12;3.90;;;1.20;;
58250;SDS011;51449;51.676;5.812;2023-03-11T09:28:35;2.50;;;1.20;;
58250;SDS011;51449;51.676;5.812;2023-03-11T09:30:56;1.60;;;1.00;;
58250;SDS011;51449;51.676;5.812;2023-03-11T09:33:18;3.33;;;1.00;;
58250;SDS011;51449;51.676;5.812;2023-03-11T09:35:40;2.47;;;0.97;;
58250;SDS011;51449;51.676;5.812;2023-03-11T09:38:01;6.90;;;1.90;;
58250;SDS011;51449;51.676;5.812;2023-03-11T09:40:24;4.57;;;1.30;;
58250;SDS011;51449;51.676;5.812;2023-03-11T09:45:23;2.70;;;0.90;;
58250;SDS011;51449;51.676;5.812;2023-03-11T09:48:01;2.20;;;0.60;;
58250;SDS011;51449;51.676;5.812;2023-03-11T09:53:35;4.40;;;0.90;;
58250;SDS011;51449;51.676;5.812;2023-03-11T09:56:05;3.43;;;1.03;;
58250;SDS011;51449;51.676;5.812;2023-03-11T10:01:11;2.63;;;0.90;;
58250;SDS011;51449;51.676;5.812;2023-03-11T10:03:38;3.07;;;0.80;;
58250;SDS011;51449;51.676;5.812;2023-03-11T10:06:11;3.60;;;0.90;;
58250;SDS011;51449;51.676;5.812;2023-03-11T10:08:42;4.30;;;0.93;;
58250;SDS011;51449;51.676;5.812;2023-03-11T10:11:39;9.30;;;1.00;;
58250;SDS011;51449;51.676;5.812;2023-03-11T10:22:36;4.67;;;0.77;;
58250;SDS011;51449;51.676;5.812;2023-03-11T10:28:59;3.43;;;1.90;;
58250;SDS011;51449;51.676;5.812;2023-03-11T10:34:25;3.67;;;0.57;;
58250;SDS011;51449;51.676;5.812;2023-03-11T10:37:08;4.27;;;0.70;;
58250;SDS011;51449;51.676;5.812;2023-03-11T10:39:37;3.03;;;1.00;;
58250;SDS011;51449;51.676;5.812;2023-03-11T10:42:01;4.28;;;0.80;;
58250;SDS011;51449;51.676;5.812;2023-03-11T10:44:28;2.93;;;0.90;;
58250;SDS011;51449;51.676;5.812;2023-03-11T10:46:55;3.27;;;0.60;;
58250;SDS011;51449;51.676;5.812;2023-03-11T10:49:17;1.43;;;0.70;;
58250;SDS011;51449;51.676;5.812;2023-03-11T10:51:39;1.60;;;0.80;;
58250;SDS011;51449;51.676;5.812;2023-03-11T10:54:05;4.10;;;1.60;;
58250;SDS011;51449;51.676;5.812;2023-03-11T10:58:54;2.73;;;0.60;;
58250;SDS011;51449;51.676;5.812;2023-03-11T11:01:17;2.47;;;0.70;;
58250;SDS011;51449;51.676;5.812;2023-03-11T11:03:42;5.28;;;1.45;;
58250;SDS011;51449;51.676;5.812;2023-03-11T11:06:17;2.60;;;0.60;;
58250;SDS011;51449;51.676;5.812;2023-03-11T11:11:41;1.20;;;0.50;;
58250;SDS011;51449;51.676;5.812;2023-03-11T11:14:21;3.70;;;0.70;;
58250;SDS011;51449;51.676;5.812;2023-03-11T11:16:43;2.60;;;0.80;;
58250;SDS011;51449;51.676;5.812;2023-03-11T11:19:12;4.23;;;0.70;;
58250;SDS011;51449;51.676;5.812;2023-03-11T11:21:39;3.33;;;0.77;;
58250;SDS011;51449;51.676;5.812;2023-03-11T11:24:11;2.77;;;0.67;;
58250;SDS011;51449;51.676;5.812;2023-03-11T11:29:37;3.27;;;1.00;;
58250;SDS011;51449;51.676;5.812;2023-03-11T11:32:15;0.93;;;0.60;;
58250;SDS011;51449;51.676;5.812;2023-03-11T11:34:39;2.77;;;0.80;;
58250;SDS011;51449;51.676;5.812;2023-03-11T11:37:02;2.10;;;0.73;;
58250;SDS011;51449;51.676;5.812;2023-03-11T11:39:28;3.53;;;1.13;;
58250;SDS011;51449;51.676;5.812;2023-03-11T11:42:00;3.50;;;0.83;;
58250;SDS011;51449;51.676;5.812;2023-03-11T11:44:27;2.83;;;0.90;;
58250;SDS011;51449;51.676;5.812;2023-03-11T11:46:55;1.97;;;0.80;;
58250;SDS011;51449;51.676;5.812;2023-03-11T11:49:28;1.70;;;0.73;;
58250;SDS011;51449;51.676;5.812;2023-03-11T11:54:36;2.33;;;0.70;;
58250;SDS011;51449;51.676;5.812;2023-03-11T11:59:34;1.88;;;0.65;;
58250;SDS011;51449;51.676;5.812;2023-03-11T12:02:10;4.17;;;1.10;;
58250;SDS011;51449;51.676;5.812;2023-03-11T12:04:55;1.07;;;0.67;;
58250;SDS011;51449;51.676;5.812;2023-03-11T12:19:32;3.53;;;0.90;;
58250;SDS011;51449;51.676;5.812;2023-03-11T12:22:09;2.53;;;0.70;;
58250;SDS011;51449;51.676;5.812;2023-03-11T12:29:49;1.60;;;0.60;;
58250;SDS011;51449;51.676;5.812;2023-03-11T12:35:02;3.63;;;0.80;;
58250;SDS011;51449;51.676;5.812;2023-03-11T12:37:41;1.43;;;0.70;;
58250;SDS011;51449;51.676;5.812;2023-03-11T12:43:02;2.33;;;0.70;;
58250;SDS011;51449;51.676;5.812;2023-03-11T12:50:47;2.70;;;0.80;;
58250;SDS011;51449;51.676;5.812;2023-03-11T12:53:14;2.37;;;0.60;;
58250;SDS011;51449;51.676;5.812;2023-03-11T12:55:38;2.27;;;0.87;;
58250;SDS011;51449;51.676;5.812;2023-03-11T12:58:03;2.97;;;0.70;;
58250;SDS011;51449;51.676;5.812;2023-03-11T13:00:59;2.93;;;0.80;;
58250;SDS011;51449;51.676;5.812;2023-03-11T13:04:38;1.75;;;0.80;;
58250;SDS011;51449;51.676;5.812;2023-03-11T13:12:42;3.20;;;1.20;;
58250;SDS011;51449;51.676;5.812;2023-03-11T13:17:41;4.27;;;1.00;;
58250;SDS011;51449;51.676;5.812;2023-03-11T13:20:07;1.07;;;0.80;;
58250;SDS011;51449;51.676;5.812;2023-03-11T13:25:27;2.60;;;0.83;;
58250;SDS011;51449;51.676;5.812;2023-03-11T13:28:44;1.93;;;0.80;;
58250;SDS011;51449;51.676;5.812;2023-03-11T13:31:43;2.00;;;0.70;;
58250;SDS011;51449;51.676;5.812;2023-03-11T13:34:37;4.40;;;1.20;;
58250;SDS011;51449;51.676;5.812;2023-03-11T13:40:27;3.33;;;1.30;;
58250;SDS011;51449;51.676;5.812;2023-03-11T13:43:01;1.57;;;1.23;;
58250;SDS011;51449;51.676;5.812;2023-03-11T13:45:29;2.63;;;1.20;;
58250;SDS011;51449;51.676;5.812;2023-03-11T13:48:05;3.00;;;1.10;;
58250;SDS011;51449;51.676;5.812;2023-03-11T13:50:44;2.20;;;1.10;;
58250;SDS011;51449;51.676;5.812;2023-03-11T13:53:16;3.30;;;1.20;;
58250;SDS011;51449;51.676;5.812;2023-03-11T13:55:46;2.57;;;1.20;;
58250;SDS011;51449;51.676;5.812;2023-03-11T13:58:42;1.73;;;1.10;;
58250;SDS011;51449;51.676;5.812;2023-03-11T14:00:57;1.30;;;0.90;;
58250;SDS011;51449;51.676;5.812;2023-03-11T14:03:22;2.20;;;0.70;;
58250;SDS011;51449;51.676;5.812;2023-03-11T14:05:49;0.90;;;0.80;;
58250;SDS011;51449;51.676;5.812;2023-03-11T14:08:28;2.10;;;1.03;;
58250;SDS011;51449;51.676;5.812;2023-03-11T14:10:53;5.87;;;1.00;;
58250;SDS011;51449;51.676;5.812;2023-03-11T14:13:24;1.77;;;0.93;;
58250;SDS011;51449;51.676;5.812;2023-03-11T14:16:04;2.80;;;0.90;;
58250;SDS011;51449;51.676;5.812;2023-03-11T14:18:38;1.63;;;0.93;;
58250;SDS011;51449;51.676;5.812;2023-03-11T14:21:03;1.63;;;0.70;;
58250;SDS011;51449;51.676;5.812;2023-03-11T14:23:34;3.03;;;0.90;;
58250;SDS011;51449;51.676;5.812;2023-03-11T14:26:06;2.87;;;0.80;;
58250;SDS011;51449;51.676;5.812;2023-03-11T14:28:35;2.33;;;1.00;;
58250;SDS011;51449;51.676;5.812;2023-03-11T14:31:04;1.93;;;1.00;;
58250;SDS011;51449;51.676;5.812;2023-03-11T14:33:26;1.57;;;0.80;;
58250;SDS011;51449;51.676;5.812;2023-03-11T14:35:52;3.73;;;0.90;;
58250;SDS011;51449;51.676;5.812;2023-03-11T14:38:20;5.47;;;1.27;;
58250;SDS011;51449;51.676;5.812;2023-03-11T14:40:52;0.80;;;0.60;;
58250;SDS011;51449;51.676;5.812;2023-03-11T14:43:18;1.93;;;0.90;;
58250;SDS011;51449;51.676;5.812;2023-03-11T14:45:42;1.80;;;0.82;;
58250;SDS011;51449;51.676;5.812;2023-03-11T14:51:01;3.37;;;1.00;;
58250;SDS011;51449;51.676;5.812;2023-03-11T14:53:41;2.87;;;0.90;;
58250;SDS011;51449;51.676;5.812;2023-03-11T14:56:20;2.23;;;1.13;;
58250;SDS011;51449;51.676;5.812;2023-03-11T14:58:48;2.93;;;1.00;;
58250;SDS011;51449;51.676;5.812;2023-03-11T15:01:28;6.67;;;1.23;;
58250;SDS011;51449;51.676;5.812;2023-03-11T15:03:57;3.40;;;1.30;;
58250;SDS011;51449;51.676;5.812;2023-03-11T15:06:52;2.97;;;1.30;;
58250;SDS011;51449;51.676;5.812;2023-03-11T15:09:19;4.50;;;1.20;;
58250;SDS011;51449;51.676;5.812;2023-03-11T15:11:48;4.00;;;0.97;;
58250;SDS011;51449;51.676;5.812;2023-03-11T15:14:19;2.13;;;1.00;;
58250;SDS011;51449;51.676;5.812;2023-03-11T15:16:45;1.63;;;0.90;;
58250;SDS011;51449;51.676;5.812;2023-03-11T15:22:06;2.53;;;1.17;;
58250;SDS011;51449;51.676;5.812;2023-03-11T15:24:53;2.93;;;1.07;;
58250;SDS011;51449;51.676;5.812;2023-03-11T15:27:28;1.97;;;1.10;;
58250;SDS011;51449;51.676;5.812;2023-03-11T15:29:52;1.48;;;1.10;;
58250;SDS011;51449;51.676;5.812;2023-03-11T15:32:22;2.60;;;0.80;;
58250;SDS011;51449;51.676;5.812;2023-03-11T15:35:02;3.70;;;1.60;;
58250;SDS011;51449;51.676;5.812;2023-03-11T15:37:30;3.17;;;1.00;;
58250;SDS011;51449;51.676;5.812;2023-03-11T15:39:55;3.27;;;1.23;;
58250;SDS011;51449;51.676;5.812;2023-03-11T15:42:29;2.50;;;1.50;;
58250;SDS011;51449;51.676;5.812;2023-03-11T15:47:29;2.30;;;1.30;;
58250;SDS011;51449;51.676;5.812;2023-03-11T15:49:51;1.97;;;1.23;;
58250;SDS011;51449;51.676;5.812;2023-03-11T15:52:13;1.63;;;1.20;;
58250;SDS011;51449;51.676;5.812;2023-03-11T15:54:37;1.93;;;1.30;;
58250;SDS011;51449;51.676;5.812;2023-03-11T15:56:59;4.50;;;1.10;;
58250;SDS011;51449;51.676;5.812;2023-03-11T15:59:25;3.90;;;1.30;;
58250;SDS011;51449;51.676;5.812;2023-03-11T16:01:48;2.20;;;1.40;;
58250;SDS011;51449;51.676;5.812;2023-03-11T16:04:11;2.67;;;1.30;;
58250;SDS011;51449;51.676;5.812;2023-03-11T16:06:35;2.50;;;1.07;;
58250;SDS011;51449;51.676;5.812;2023-03-11T16:08:57;5.70;;;1.33;;
58250;SDS011;51449;51.676;5.812;2023-03-11T16:11:18;2.40;;;1.37;;
58250;SDS011;51449;51.676;5.812;2023-03-11T16:13:40;2.87;;;1.53;;
58250;SDS011;51449;51.676;5.812;2023-03-11T16:16:02;6.47;;;1.73;;
58250;SDS011;51449;51.676;5.812;2023-03-11T16:18:25;2.27;;;1.40;;
58250;SDS011;51449;51.676;5.812;2023-03-11T16:20:47;2.17;;;1.50;;
58250;SDS011;51449;51.676;5.812;2023-03-11T16:23:15;3.47;;;1.30;;
58250;SDS011;51449;51.676;5.812;2023-03-11T16:25:45;2.37;;;1.20;;